DLH828 EDDK-EDDH
Flight info
| Callsign | DLH828 |
|---|---|
| Flight time | 0h 46m |
| Altitude | 35000 |
| Route | PODIP6D PODIP Y867 PELUN DCT ANZIV DCT WRB Y867 TOLGI DCT SAS/N0476F340 P605 NOLGO NOLGO3P |
| Aircraft | A359/H-SDE2E3GHIJ3J4J5LM1ORWXY/LB1D1 |
Departure
| Time | 2026-04-23 19:09 |
|---|---|
| Airport | Cologne Bonn Airport (EDDK) |
Arrival
| Time | 2026-04-23 19:55 |
|---|---|
| Airport | Hamburg Helmut Schmidt Airport (EDDH) |
| Time | Latitude | Longitude | Altitude | Speed | Heading |
|---|---|---|---|---|---|
| 2026-04-23 18:35 | 50.87728 | 7.12409 | 236 ft | 0 kts | 288° |
| 2026-04-23 18:37 | 50.87778 | 7.12407 | 237 ft | 0 kts | 288° |
| 2026-04-23 18:38 | 50.87910 | 7.12475 | 237 ft | 0 kts | 288° |
| 2026-04-23 18:38 | 50.87906 | 7.12490 | 236 ft | 0 kts | 288° |
| 2026-04-23 18:58 | 50.87904 | 7.12503 | 236 ft | 2 kts | 298° |
| 2026-04-23 18:58 | 50.87895 | 7.12525 | 236 ft | 2 kts | 311° |
| 2026-04-23 18:59 | 50.87882 | 7.12543 | 236 ft | 2 kts | 326° |
| 2026-04-23 18:59 | 50.87868 | 7.12555 | 236 ft | 2 kts | 339° |
| 2026-04-23 18:59 | 50.87853 | 7.12562 | 236 ft | 2 kts | 349° |
| 2026-04-23 18:59 | 50.87836 | 7.12566 | 236 ft | 2 kts | 356° |
| 2026-04-23 19:00 | 50.87820 | 7.12567 | 236 ft | 2 kts | 1° |
| 2026-04-23 19:00 | 50.87804 | 7.12565 | 236 ft | 2 kts | 6° |
| 2026-04-23 19:00 | 50.87787 | 7.12562 | 236 ft | 2 kts | 10° |
| 2026-04-23 19:00 | 50.87774 | 7.12558 | 236 ft | 0 kts | 12° |
| 2026-04-23 19:02 | 50.87785 | 7.12561 | 236 ft | 6 kts | 12° |
| 2026-04-23 19:02 | 50.87810 | 7.12614 | 236 ft | 7 kts | 90° |
| 2026-04-23 19:02 | 50.87766 | 7.12700 | 236 ft | 14 kts | 137° |
| 2026-04-23 19:02 | 50.87676 | 7.12832 | 236 ft | 20 kts | 137° |
| 2026-04-23 19:03 | 50.87566 | 7.12993 | 236 ft | 23 kts | 137° |
| 2026-04-23 19:03 | 50.87446 | 7.13167 | 239 ft | 24 kts | 137° |
| 2026-04-23 19:03 | 50.87317 | 7.13354 | 241 ft | 26 kts | 137° |
| 2026-04-23 19:03 | 50.87184 | 7.13545 | 244 ft | 26 kts | 137° |
| 2026-04-23 19:04 | 50.87061 | 7.13725 | 248 ft | 23 kts | 137° |
| 2026-04-23 19:04 | 50.86944 | 7.13895 | 250 ft | 24 kts | 137° |
| 2026-04-23 19:04 | 50.86819 | 7.14075 | 254 ft | 24 kts | 139° |
| 2026-04-23 19:04 | 50.86685 | 7.14212 | 262 ft | 22 kts | 140° |
| 2026-04-23 19:05 | 50.86570 | 7.14379 | 264 ft | 23 kts | 136° |
| 2026-04-23 19:05 | 50.86445 | 7.14557 | 268 ft | 24 kts | 138° |
| 2026-04-23 19:05 | 50.86311 | 7.14750 | 273 ft | 27 kts | 137° |
| 2026-04-23 19:05 | 50.86174 | 7.14948 | 277 ft | 27 kts | 137° |
| 2026-04-23 19:06 | 50.86064 | 7.15114 | 282 ft | 17 kts | 128° |
| 2026-04-23 19:06 | 50.86061 | 7.15281 | 282 ft | 16 kts | 57° |
| 2026-04-23 19:06 | 50.86151 | 7.15353 | 282 ft | 15 kts | 2° |
| 2026-04-23 19:06 | 50.86249 | 7.15327 | 281 ft | 15 kts | 346° |
| 2026-04-23 19:07 | 50.86361 | 7.15278 | 276 ft | 18 kts | 344° |
| 2026-04-23 19:07 | 50.86428 | 7.15243 | 274 ft | 7 kts | 327° |
| 2026-04-23 19:07 | 50.86437 | 7.15231 | 274 ft | 0 kts | 320° |
| 2026-04-23 19:08 | 50.86516 | 7.15123 | 272 ft | 52 kts | 318° |
| 2026-04-23 19:08 | 50.87003 | 7.14422 | 264 ft | 134 kts | 317° |
| 2026-04-23 19:08 | 50.87813 | 7.13240 | 643 ft | 167 kts | 318° |
| 2026-04-23 19:09 | 50.88736 | 7.12149 | 1652 ft | 168 kts | 330° |
| 2026-04-23 19:09 | 50.89850 | 7.11499 | 2263 ft | 175 kts | 353° |
| 2026-04-23 19:09 | 50.91086 | 7.11716 | 2770 ft | 187 kts | 17° |
| 2026-04-23 19:09 | 50.92347 | 7.12554 | 3104 ft | 208 kts | 25° |
| 2026-04-23 19:10 | 50.93609 | 7.13884 | 3466 ft | 229 kts | 41° |
| 2026-04-23 19:10 | 50.94534 | 7.16070 | 3885 ft | 249 kts | 63° |
| 2026-04-23 19:10 | 50.95219 | 7.18625 | 4554 ft | 254 kts | 65° |
| 2026-04-23 19:10 | 50.95834 | 7.21271 | 5277 ft | 257 kts | 69° |
| 2026-04-23 19:11 | 50.96424 | 7.23961 | 5978 ft | 259 kts | 68° |
| 2026-04-23 19:11 | 50.96994 | 7.26680 | 6681 ft | 261 kts | 68° |
| 2026-04-23 19:11 | 50.97694 | 7.29350 | 7325 ft | 263 kts | 61° |
| 2026-04-23 19:11 | 50.98579 | 7.31906 | 7989 ft | 266 kts | 55° |
| 2026-04-23 19:12 | 50.99244 | 7.33547 | 8425 ft | 267 kts | 54° |
| 2026-04-23 19:12 | 51.00625 | 7.36871 | 9314 ft | 272 kts | 54° |
| 2026-04-23 19:12 | 51.01670 | 7.39393 | 9994 ft | 274 kts | 53° |
| 2026-04-23 19:12 | 51.02466 | 7.42166 | 10644 ft | 280 kts | 72° |
| 2026-04-23 19:13 | 51.02780 | 7.45246 | 11174 ft | 287 kts | 80° |
| 2026-04-23 19:13 | 51.03241 | 7.48376 | 11526 ft | 297 kts | 69° |
| 2026-04-23 19:13 | 51.04104 | 7.51415 | 11864 ft | 308 kts | 60° |
| 2026-04-23 19:13 | 51.05180 | 7.54438 | 12167 ft | 321 kts | 58° |
| 2026-04-23 19:14 | 51.06284 | 7.57546 | 12435 ft | 333 kts | 59° |
| 2026-04-23 19:14 | 51.07389 | 7.60843 | 12809 ft | 342 kts | 61° |
| 2026-04-23 19:14 | 51.08466 | 7.64250 | 13298 ft | 346 kts | 62° |
| 2026-04-23 19:14 | 51.09519 | 7.67724 | 13789 ft | 350 kts | 63° |
| 2026-04-23 19:15 | 51.10557 | 7.71241 | 14293 ft | 353 kts | 63° |
| 2026-04-23 19:15 | 51.11595 | 7.74795 | 14748 ft | 356 kts | 64° |
| 2026-04-23 19:15 | 51.12639 | 7.78384 | 15189 ft | 359 kts | 64° |
| 2026-04-23 19:15 | 51.13694 | 7.82008 | 15650 ft | 362 kts | 64° |
| 2026-04-23 19:16 | 51.14756 | 7.85653 | 16109 ft | 364 kts | 64° |
| 2026-04-23 19:16 | 51.15828 | 7.89328 | 16558 ft | 367 kts | 64° |
| 2026-04-23 19:16 | 51.16911 | 7.93037 | 17000 ft | 370 kts | 64° |
| 2026-04-23 19:17 | 51.19098 | 8.00541 | 17905 ft | 376 kts | 64° |
| 2026-04-23 19:17 | 51.20201 | 8.04335 | 18351 ft | 379 kts | 65° |
| 2026-04-23 19:17 | 51.21310 | 8.08155 | 18765 ft | 381 kts | 65° |
| 2026-04-23 19:17 | 51.22427 | 8.12011 | 19158 ft | 383 kts | 65° |
| 2026-04-23 19:18 | 51.23544 | 8.15872 | 19631 ft | 384 kts | 65° |
| 2026-04-23 19:18 | 51.24645 | 8.19685 | 20087 ft | 384 kts | 65° |
| 2026-04-23 19:18 | 51.25765 | 8.23570 | 20438 ft | 387 kts | 65° |
| 2026-04-23 19:18 | 51.26893 | 8.27488 | 20817 ft | 389 kts | 65° |
| 2026-04-23 19:19 | 51.29158 | 8.35384 | 21598 ft | 393 kts | 65° |
| 2026-04-23 19:19 | 51.30293 | 8.39349 | 22037 ft | 393 kts | 65° |
| 2026-04-23 19:20 | 51.32585 | 8.47369 | 22777 ft | 397 kts | 65° |
| 2026-04-23 19:20 | 51.33737 | 8.51412 | 23077 ft | 401 kts | 65° |
| 2026-04-23 19:20 | 51.34893 | 8.55476 | 23492 ft | 401 kts | 65° |
| 2026-04-23 19:20 | 51.36053 | 8.59557 | 23830 ft | 405 kts | 65° |
| 2026-04-23 19:21 | 51.37220 | 8.63672 | 24113 ft | 407 kts | 65° |
| 2026-04-23 19:21 | 51.39562 | 8.71958 | 24670 ft | 412 kts | 65° |
| 2026-04-23 19:21 | 51.40742 | 8.76143 | 24982 ft | 413 kts | 65° |
| 2026-04-23 19:22 | 51.42079 | 8.80228 | 25273 ft | 414 kts | 58° |
| 2026-04-23 19:22 | 51.43835 | 8.83890 | 25592 ft | 416 kts | 47° |
| 2026-04-23 19:22 | 51.48359 | 8.89716 | 26204 ft | 420 kts | 35° |
| 2026-04-23 19:23 | 51.50819 | 8.92293 | 26485 ft | 424 kts | 33° |
| 2026-04-23 19:23 | 51.53329 | 8.94795 | 26811 ft | 426 kts | 32° |
| 2026-04-23 19:23 | 51.55858 | 8.97287 | 27158 ft | 428 kts | 33° |
| 2026-04-23 19:24 | 51.60943 | 9.02366 | 27874 ft | 432 kts | 33° |
| 2026-04-23 19:24 | 51.63493 | 9.04959 | 28240 ft | 435 kts | 33° |
| 2026-04-23 19:24 | 51.68622 | 9.10235 | 28999 ft | 440 kts | 34° |
| 2026-04-23 19:25 | 51.73771 | 9.15563 | 29908 ft | 446 kts | 34° |
| 2026-04-23 19:25 | 51.79025 | 9.21014 | 30807 ft | 452 kts | 34° |
| 2026-04-23 19:26 | 51.84348 | 9.26546 | 31640 ft | 458 kts | 34° |
| 2026-04-23 19:26 | 51.87034 | 9.29342 | 32052 ft | 460 kts | 34° |
| 2026-04-23 19:27 | 51.92446 | 9.34990 | 32813 ft | 465 kts | 34° |
| 2026-04-23 19:27 | 52.00655 | 9.43588 | 33851 ft | 472 kts | 34° |
| 2026-04-23 19:28 | 52.06195 | 9.49411 | 34450 ft | 476 kts | 34° |
| 2026-04-23 19:28 | 52.11754 | 9.55273 | 35149 ft | 476 kts | 34° |
| 2026-04-23 19:29 | 52.14521 | 9.58197 | 35254 ft | 469 kts | 33° |
| 2026-04-23 19:29 | 52.19901 | 9.63892 | 35264 ft | 456 kts | 33° |
| 2026-04-23 19:30 | 52.25046 | 9.69103 | 34920 ft | 459 kts | 28° |
| 2026-04-23 19:30 | 52.27866 | 9.71116 | 34482 ft | 454 kts | 20° |
| 2026-04-23 19:30 | 52.33916 | 9.73702 | 33438 ft | 446 kts | 14° |
| 2026-04-23 19:31 | 52.36927 | 9.74825 | 32895 ft | 442 kts | 14° |
| 2026-04-23 19:31 | 52.39911 | 9.75935 | 32379 ft | 438 kts | 13° |
| 2026-04-23 19:31 | 52.42874 | 9.77036 | 31877 ft | 434 kts | 14° |
| 2026-04-23 19:31 | 52.45806 | 9.78128 | 31375 ft | 430 kts | 14° |
| 2026-04-23 19:32 | 52.48718 | 9.79213 | 30886 ft | 427 kts | 14° |
| 2026-04-23 19:32 | 52.51602 | 9.80290 | 30395 ft | 424 kts | 14° |
| 2026-04-23 19:32 | 52.54469 | 9.81362 | 29762 ft | 422 kts | 14° |
| 2026-04-23 19:32 | 52.57331 | 9.82434 | 29121 ft | 420 kts | 14° |
| 2026-04-23 19:33 | 52.60177 | 9.83501 | 28503 ft | 419 kts | 13° |
| 2026-04-23 19:33 | 52.63011 | 9.84565 | 27917 ft | 417 kts | 13° |
| 2026-04-23 19:33 | 52.68642 | 9.86683 | 26718 ft | 413 kts | 13° |
| 2026-04-23 19:34 | 52.71443 | 9.87738 | 26148 ft | 411 kts | 13° |
| 2026-04-23 19:34 | 52.74224 | 9.88787 | 25590 ft | 408 kts | 13° |
| 2026-04-23 19:34 | 52.79696 | 9.90855 | 25035 ft | 405 kts | 12° |
| 2026-04-23 19:35 | 52.82413 | 9.91885 | 24738 ft | 393 kts | 13° |
| 2026-04-23 19:35 | 52.85005 | 9.92867 | 24375 ft | 372 kts | 12° |
| 2026-04-23 19:35 | 52.87467 | 9.93801 | 23992 ft | 355 kts | 12° |
| 2026-04-23 19:35 | 52.89836 | 9.94699 | 23309 ft | 346 kts | 12° |
| 2026-04-23 19:36 | 52.92141 | 9.95574 | 22649 ft | 343 kts | 12° |
| 2026-04-23 19:36 | 52.94423 | 9.96808 | 22242 ft | 341 kts | 26° |
| 2026-04-23 19:36 | 52.96271 | 9.99236 | 21811 ft | 342 kts | 47° |
| 2026-04-23 19:36 | 52.97693 | 10.02399 | 21379 ft | 341 kts | 53° |
| 2026-04-23 19:37 | 52.98996 | 10.05615 | 20966 ft | 339 kts | 54° |
| 2026-04-23 19:37 | 53.00302 | 10.08860 | 20561 ft | 337 kts | 54° |
| 2026-04-23 19:37 | 53.01593 | 10.12090 | 20149 ft | 335 kts | 54° |
| 2026-04-23 19:37 | 53.02923 | 10.15237 | 19708 ft | 331 kts | 47° |
| 2026-04-23 19:38 | 53.04696 | 10.17588 | 19287 ft | 324 kts | 25° |
| 2026-04-23 19:38 | 53.06794 | 10.18825 | 18905 ft | 319 kts | 14° |
| 2026-04-23 19:38 | 53.08965 | 10.19452 | 18465 ft | 316 kts | 2° |
| 2026-04-23 19:38 | 53.11152 | 10.19406 | 18030 ft | 313 kts | 356° |
| 2026-04-23 19:39 | 53.13310 | 10.19117 | 17628 ft | 310 kts | 354° |
| 2026-04-23 19:39 | 53.15451 | 10.18756 | 17197 ft | 308 kts | 354° |
| 2026-04-23 19:39 | 53.17580 | 10.18361 | 16778 ft | 306 kts | 353° |
| 2026-04-23 19:39 | 53.19685 | 10.17954 | 16386 ft | 303 kts | 353° |
| 2026-04-23 19:40 | 53.21775 | 10.17540 | 15976 ft | 301 kts | 353° |
| 2026-04-23 19:40 | 53.23844 | 10.17124 | 15607 ft | 298 kts | 353° |
| 2026-04-23 19:40 | 53.25972 | 10.16693 | 15468 ft | 314 kts | 353° |
| 2026-04-23 19:40 | 53.28119 | 10.16258 | 15279 ft | 310 kts | 353° |
| 2026-04-23 19:41 | 53.30232 | 10.15827 | 15065 ft | 301 kts | 353° |
| 2026-04-23 19:41 | 53.32285 | 10.15406 | 14757 ft | 295 kts | 353° |
| 2026-04-23 19:41 | 53.33631 | 10.15130 | 14524 ft | 292 kts | 353° |
| 2026-04-23 19:41 | 53.36290 | 10.14584 | 14025 ft | 289 kts | 353° |
| 2026-04-23 19:42 | 53.38280 | 10.14175 | 13601 ft | 287 kts | 353° |
| 2026-04-23 19:42 | 53.40248 | 10.13773 | 13224 ft | 282 kts | 353° |
| 2026-04-23 19:42 | 53.42138 | 10.13494 | 12923 ft | 264 kts | 356° |
| 2026-04-23 19:42 | 53.43926 | 10.13292 | 12622 ft | 254 kts | 356° |
| 2026-04-23 19:43 | 53.45708 | 10.13089 | 12018 ft | 260 kts | 355° |
| 2026-04-23 19:43 | 53.47525 | 10.12871 | 11563 ft | 262 kts | 355° |
| 2026-04-23 19:43 | 53.49338 | 10.12649 | 11187 ft | 261 kts | 355° |
| 2026-04-23 19:43 | 53.51136 | 10.12425 | 10895 ft | 256 kts | 355° |
| 2026-04-23 19:44 | 53.52315 | 10.12277 | 10761 ft | 246 kts | 355° |
| 2026-04-23 19:44 | 53.53991 | 10.12153 | 10461 ft | 239 kts | 359° |
| 2026-04-23 19:44 | 53.55616 | 10.12377 | 10194 ft | 237 kts | 7° |
| 2026-04-23 19:44 | 53.57229 | 10.13048 | 9866 ft | 236 kts | 16° |
| 2026-04-23 19:45 | 53.58729 | 10.14142 | 9546 ft | 235 kts | 24° |
| 2026-04-23 19:45 | 53.60093 | 10.15619 | 9193 ft | 237 kts | 33° |
| 2026-04-23 19:45 | 53.61320 | 10.17487 | 8858 ft | 239 kts | 41° |
| 2026-04-23 19:45 | 53.62433 | 10.19633 | 8506 ft | 240 kts | 45° |
| 2026-04-23 19:46 | 53.63483 | 10.21760 | 8163 ft | 239 kts | 45° |
| 2026-04-23 19:46 | 53.64567 | 10.23961 | 7928 ft | 243 kts | 44° |
| 2026-04-23 19:46 | 53.65621 | 10.26104 | 7681 ft | 238 kts | 44° |
| 2026-04-23 19:46 | 53.66674 | 10.28242 | 7384 ft | 236 kts | 44° |
| 2026-04-23 19:47 | 53.67723 | 10.30360 | 7053 ft | 235 kts | 44° |
| 2026-04-23 19:47 | 53.68782 | 10.32502 | 6723 ft | 234 kts | 44° |
| 2026-04-23 19:47 | 53.69802 | 10.34570 | 6420 ft | 232 kts | 44° |
| 2026-04-23 19:47 | 53.70832 | 10.36657 | 6083 ft | 230 kts | 44° |
| 2026-04-23 19:48 | 53.71857 | 10.38727 | 5738 ft | 230 kts | 43° |
| 2026-04-23 19:48 | 53.72878 | 10.40795 | 5416 ft | 229 kts | 44° |
| 2026-04-23 19:48 | 53.73893 | 10.42844 | 5234 ft | 226 kts | 43° |
| 2026-04-23 19:48 | 53.75133 | 10.44339 | 5100 ft | 216 kts | 14° |
| 2026-04-23 19:49 | 53.76576 | 10.44460 | 4973 ft | 208 kts | 344° |
| 2026-04-23 19:49 | 53.77787 | 10.43189 | 4859 ft | 209 kts | 313° |
| 2026-04-23 19:49 | 53.78378 | 10.40922 | 4709 ft | 219 kts | 283° |
| 2026-04-23 19:49 | 53.78181 | 10.38316 | 4600 ft | 230 kts | 259° |
| 2026-04-23 19:50 | 53.77609 | 10.35795 | 4464 ft | 226 kts | 255° |
| 2026-04-23 19:50 | 53.76996 | 10.33405 | 4328 ft | 217 kts | 254° |
| 2026-04-23 19:50 | 53.76389 | 10.31100 | 4231 ft | 212 kts | 254° |
| 2026-04-23 19:50 | 53.75788 | 10.28840 | 4102 ft | 210 kts | 254° |
| 2026-04-23 19:51 | 53.75191 | 10.26574 | 3957 ft | 210 kts | 254° |
| 2026-04-23 19:51 | 53.74596 | 10.24319 | 3777 ft | 210 kts | 254° |
| 2026-04-23 19:51 | 53.74002 | 10.22078 | 3499 ft | 206 kts | 254° |
| 2026-04-23 19:51 | 53.73345 | 10.19936 | 3172 ft | 208 kts | 245° |
| 2026-04-23 19:52 | 53.72456 | 10.17998 | 2836 ft | 209 kts | 238° |
| 2026-04-23 19:52 | 53.71545 | 10.16123 | 2543 ft | 204 kts | 240° |
| 2026-04-23 19:52 | 53.70653 | 10.14291 | 2267 ft | 199 kts | 240° |
| 2026-04-23 19:52 | 53.69780 | 10.12514 | 2001 ft | 193 kts | 240° |
| 2026-04-23 19:53 | 53.68946 | 10.10817 | 1744 ft | 182 kts | 240° |
| 2026-04-23 19:53 | 53.68156 | 10.09206 | 1485 ft | 173 kts | 239° |
| 2026-04-23 19:53 | 53.67412 | 10.07699 | 1254 ft | 161 kts | 239° |
| 2026-04-23 19:53 | 53.66724 | 10.06302 | 1037 ft | 149 kts | 238° |
| 2026-04-23 19:54 | 53.66085 | 10.05007 | 835 ft | 139 kts | 237° |
| 2026-04-23 19:54 | 53.65490 | 10.03796 | 663 ft | 130 kts | 236° |
| 2026-04-23 19:54 | 53.64933 | 10.02660 | 481 ft | 123 kts | 237° |
| 2026-04-23 19:54 | 53.64382 | 10.01547 | 330 ft | 124 kts | 237° |
| 2026-04-23 19:55 | 53.63831 | 10.00440 | 162 ft | 122 kts | 240° |
| 2026-04-23 19:55 | 53.63296 | 9.99352 | 49 ft | 116 kts | 232° |
| 2026-04-23 19:55 | 53.62850 | 9.98440 | 45 ft | 85 kts | 230° |
| 2026-04-23 19:55 | 53.62573 | 9.97883 | 44 ft | 33 kts | 230° |
| 2026-04-23 19:56 | 53.62485 | 9.97782 | 45 ft | 12 kts | 167° |
| 2026-04-23 19:56 | 53.62432 | 9.97880 | 46 ft | 11 kts | 102° |
| 2026-04-23 19:56 | 53.62441 | 9.98009 | 49 ft | 12 kts | 71° |
| 2026-04-23 19:56 | 53.62491 | 9.98148 | 49 ft | 15 kts | 52° |
| 2026-04-23 19:57 | 53.62567 | 9.98299 | 49 ft | 19 kts | 50° |
| 2026-04-23 19:57 | 53.62658 | 9.98486 | 46 ft | 22 kts | 50° |
| 2026-04-23 19:57 | 53.62764 | 9.98698 | 47 ft | 25 kts | 50° |
| 2026-04-23 19:57 | 53.62879 | 9.98931 | 50 ft | 27 kts | 50° |
| 2026-04-23 19:58 | 53.62980 | 9.99138 | 49 ft | 22 kts | 51° |
| 2026-04-23 19:58 | 53.63079 | 9.99354 | 49 ft | 22 kts | 57° |
| 2026-04-23 19:58 | 53.63149 | 9.99519 | 49 ft | 16 kts | 51° |
| 2026-04-23 19:58 | 53.63207 | 9.99642 | 50 ft | 5 kts | 51° |
| 2026-04-23 19:59 | 53.63215 | 9.99659 | 47 ft | 0 kts | 52° |
| 2026-04-23 19:59 | 53.63241 | 9.99707 | 50 ft | 10 kts | 46° |
| 2026-04-23 19:59 | 53.63297 | 9.99805 | 48 ft | 12 kts | 47° |
| 2026-04-23 20:00 | 53.63351 | 9.99909 | 54 ft | 11 kts | 50° |
| 2026-04-23 20:00 | 53.63398 | 10.00002 | 48 ft | 10 kts | 49° |
| 2026-04-23 20:00 | 53.63431 | 10.00094 | 52 ft | 9 kts | 66° |
| 2026-04-23 20:00 | 53.63439 | 10.00155 | 53 ft | 0 kts | 82° |
| 2026-04-23 20:01 | 53.63436 | 10.00193 | 51 ft | 6 kts | 102° |
| 2026-04-23 20:01 | 53.63427 | 10.00253 | 48 ft | 5 kts | 103° |
| 2026-04-23 20:01 | 53.63421 | 10.00308 | 53 ft | 4 kts | 100° |
| 2026-04-23 20:01 | 53.63418 | 10.00334 | 55 ft | 0 kts | 100° |